KDHT/DHT METAR and TAF weather

Enter ICAO airport designator
Station Type Date Time Source
KDHT METAR 2019/06/26 20:53 UTC NOAA

KDHT 262053Z AUTO 19018G25KT 10SM CLR 36/07 A3005 RMK AO2 PK WND 18029/2020 SLP107 T03560067 58017


Station Type Date Time Source
KDHT Decoded METAR 2019/06/26 20:53 UTC NOAA

DALHART MUNICIPAL AIRPORT, TX, United States (KDHT) 36-01N 102-33W 1217M
Jun 26, 2019 - 04:53 PM EDT / 2019.06.26 2053 UTC
Wind: from the S (190 degrees) at 21 MPH (18 KT) gusting to 29 MPH (25 KT):0
Visibility: 10 mile(s):0
Sky conditions: clear
Temperature: 96.1 F (35.6 C)
Dew Point: 44.1 F (6.7 C)
Relative Humidity: 16%
Pressure (altimeter): 30.05 in. Hg (1017 hPa)
Pressure tendency: 0.05 inches (1.7 hPa) lower than three hours ago
ob: KDHT 262053Z AUTO 19018G25KT 10SM CLR 36/07 A3005 RMK AO2 PK WND 18029/2020 SLP107 T03560067 58017
cycle: 21

Station Type Date Time Source
KDHT TAF 2019/06/26 18:42 UTC NOAA

TAF KDHT 261739Z 2618/2718 19019G28KT P6SM SCT200
TEMPO 2622/2702 6SM -TSRA BKN050CB
FM270200 17012KT P6SM BKN150
FM271100 20009KT P6SM SCT200
FM271500 22015G24KT P6SM FEW200

Example: see airport list